Time;durP1;ratioP1;P1;durP2;ratioP2;P2;SDS_P1;SDS_P2;PMS_P1;PMS_P2;Temp;Humidity;BMP_temperature;BMP_pressure;BME280_temperature;BME280_humidity;BME280_pressure;Samples;Min_cycle;Max_cycle;Signal;HPM_P1;HPM_P2
2023/08/14 07:01:22;;;;;;;0.20;0.20;;;25.00;99.90;31.30;101289.00;;;;6185603;22;1813473;-65
2023/08/14 07:03:49;;;;;;;0.10;0.10;;;26.00;99.90;31.60;101291.00;;;;6251560;22;20171;-65
2023/08/14 07:06:15;;;;;;;0.10;0.10;;;26.60;99.90;33.30;101261.00;;;;6251614;22;20257;-65
2023/08/14 07:08:42;;;;;;;0.55;0.55;;;27.90;99.90;30.80;101302.00;;;;6251195;22;20137;-65
2023/08/14 07:11:08;;;;;;;0.25;0.25;;;27.20;99.90;31.30;101271.00;;;;6251340;22;20206;-65
2023/08/14 07:13:34;;;;;;;0.20;0.20;;;27.00;99.90;32.90;101264.00;;;;6251405;22;20157;-65
2023/08/14 07:16:01;;;;;;;0.10;0.10;;;28.00;99.90;30.50;101305.00;;;;6225910;22;20561;-65
2023/08/14 07:18:27;;;;;;;0.35;0.35;;;26.70;99.90;29.30;101326.00;;;;6251110;22;20595;-67
2023/08/14 07:20:54;;;;;;;0.10;0.10;;;25.80;99.90;28.20;101319.00;;;;6251588;22;20580;-65
2023/08/14 07:23:21;;;;;;;0.20;0.20;;;24.70;99.90;27.70;101338.00;;;;6251172;22;20183;-65
2023/08/14 07:25:49;;;;;;;0.10;0.10;;;24.10;99.90;27.50;101343.00;;;;6251335;22;20149;-65
2023/08/14 07:28:17;;;;;;;0.10;0.10;;;23.50;99.90;29.10;101324.00;;;;6251667;22;20141;-65
2023/08/14 07:30:43;;;;;;;0.15;0.15;;;24.30;99.90;29.80;101314.00;;;;6251035;22;20183;-65
2023/08/14 07:33:13;;;;;;;0.43;0.43;;;25.20;99.90;29.40;101313.00;;;;6251159;22;20157;-65
2023/08/14 07:35:39;;;;;;;0.10;0.10;;;25.20;99.90;30.40;101309.00;;;;6252072;22;20472;-65
2023/08/14 07:38:05;;;;;;;0.10;0.10;;;25.90;99.90;30.60;101284.00;;;;6251163;22;20596;-65
2023/08/14 07:40:32;;;;;;;0.10;0.10;;;26.30;99.90;31.40;101286.00;;;;6225718;22;20153;-65
2023/08/14 07:42:58;;;;;;;0.30;0.30;;;27.00;99.90;31.40;101267.00;;;;6251048;22;20177;-65
2023/08/14 07:45:25;;;;;;;0.32;0.20;;;27.10;99.90;32.60;101265.00;;;;6251058;22;20157;-65
2023/08/14 07:47:51;;;;;;;0.10;0.10;;;27.50;99.90;32.60;101233.00;;;;6250614;22;20141;-65
2023/08/14 07:50:17;;;;;;;0.40;0.40;;;28.10;99.90;33.20;101232.00;;;;6250841;22;20153;-66
2023/08/14 07:52:43;;;;;;;0.10;0.10;;;28.50;99.90;34.60;101232.00;;;;6250789;22;20161;-66
2023/08/14 07:55:16;;;;;;;0.10;0.10;;;29.20;99.90;32.60;101272.00;;;;6250813;22;20657;-65
2023/08/14 07:57:45;;;;;;;0.10;0.10;;;28.80;99.90;32.00;101286.00;;;;6225471;22;20194;-65
2023/08/14 08:00:16;;;;;;;0.10;0.10;;;28.20;99.90;32.70;101285.00;;;;6250587;22;20172;-66
2023/08/14 08:02:42;;;;;;;0.17;0.17;;;28.30;99.90;32.60;101287.00;;;;6251204;22;20251;-66
2023/08/14 08:05:08;;;;;;;0.20;0.20;;;28.60;99.90;31.10;101320.00;;;;6250939;22;20141;-65
2023/08/14 08:07:35;;;;;;;0.52;0.20;;;27.70;99.90;33.20;101274.00;;;;6251025;22;20177;-65
2023/08/14 08:10:02;;;;;;;0.10;0.10;;;28.20;99.90;32.70;101291.00;;;;6250923;22;20137;-65
2023/08/14 08:12:28;;;;;;;0.10;0.10;;;28.40;99.90;33.60;101280.00;;;;6224251;22;20161;-65
2023/08/14 08:14:55;;;;;;;0.20;0.15;;;28.80;99.90;33.30;101267.00;;;;6251129;22;20558;-65
2023/08/14 08:17:21;;;;;;;0.10;0.10;;;28.90;99.90;33.70;101275.00;;;;6250963;22;20555;-65
2023/08/14 08:19:47;;;;;;;0.10;0.10;;;29.20;99.90;33.50;101283.00;;;;6250650;22;20137;-65
2023/08/14 08:22:14;;;;;;;0.40;0.38;;;28.90;99.90;34.40;101265.00;;;;6250096;22;20177;-65
2023/08/14 08:24:40;;;;;;;0.10;0.10;;;29.60;99.90;32.70;101297.00;;;;6225589;22;20581;-65
2023/08/14 08:27:06;;;;;;;0.68;0.28;;;28.90;99.90;32.50;101298.00;;;;6251023;22;20145;-65
2023/08/14 08:29:32;;;;;;;0.10;0.10;;;28.60;99.90;30.40;101358.00;;;;6250577;22;20243;-65
2023/08/14 08:31:58;;;;;;;0.10;0.10;;;27.60;99.90;32.60;101319.00;;;;6225495;22;20149;-65
2023/08/14 08:34:24;;;;;;;0.10;0.10;;;27.90;99.90;31.90;101339.00;;;;6250763;22;20149;-65
2023/08/14 08:36:50;;;;;;;0.85;0.85;;;27.80;99.90;31.40;101340.00;;;;6250383;22;20164;-65
2023/08/14 08:39:16;;;;;;;0.10;0.10;;;27.50;99.90;31.50;101317.00;;;;6250343;22;20208;-66
2023/08/14 08:41:53;;;;;;;0.10;0.10;;;27.50;99.90;31.80;101333.00;;;;6250563;22;20156;-66
2023/08/14 08:44:26;;;;;;;0.10;0.10;;;27.70;99.90;31.30;101323.00;;;;6277455;22;20141;-65
2023/08/14 08:47:46;;;;;;;0.20;0.20;;;27.60;99.90;31.90;101334.00;;;;6251142;22;20141;-65
2023/08/14 08:50:13;;;;;;;0.55;0.25;;;27.70;99.90;31.40;101310.00;;;;6249898;22;20160;-65
2023/08/14 08:52:40;;;;;;;0.13;0.13;;;28.00;99.90;32.90;101301.00;;;;6250567;22;20159;-64
2023/08/14 08:55:08;;;;;;;0.20;0.20;;;28.50;99.90;33.90;101290.00;;;;6250497;22;20157;-64
2023/08/14 08:57:35;;;;;;;0.25;0.25;;;29.00;99.90;31.80;101326.00;;;;6249940;22;20186;-64
2023/08/14 09:00:03;;;;;;;0.10;0.10;;;28.50;99.90;32.90;101278.00;;;;6250092;22;20228;-64
2023/08/14 09:02:29;;;;;;;0.30;0.30;;;28.60;99.90;31.70;101320.00;;;;6250566;22;20173;-64
2023/08/14 09:04:55;;;;;;;1.45;1.05;;;28.30;99.90;33.10;101304.00;;;;6249766;22;20577;-65
2023/08/14 09:07:21;;;;;;;0.10;0.10;;;28.50;99.90;33.40;101306.00;;;;6224884;22;20161;-65
2023/08/14 09:09:48;;;;;;;0.10;0.10;;;28.80;99.90;32.80;101303.00;;;;6250573;22;20156;-64
2023/08/14 09:12:14;;;;;;;0.10;0.10;;;28.80;99.90;33.70;101296.00;;;;6250409;22;20176;-65
2023/08/14 09:14:44;;;;;;;0.40;0.40;;;29.10;99.90;32.80;101299.00;;;;6249941;22;20243;-64
2023/08/14 09:17:11;;;;;;;0.20;0.20;;;29.20;99.90;32.70;101272.00;;;;6249245;22;20137;-64
2023/08/14 09:19:39;;;;;;;0.10;0.10;;;28.70;99.90;33.10;101286.00;;;;6249981;22;20164;-64
2023/08/14 09:22:06;;;;;;;0.20;0.20;;;28.60;99.90;33.10;101274.00;;;;6275560;22;20499;-64
2023/08/14 09:24:37;;;;;;;0.10;0.10;;;29.20;99.90;33.10;101267.00;;;;6224609;22;20641;-65
2023/08/14 09:27:11;;;;;;;0.20;0.20;;;29.10;99.90;33.90;101259.00;;;;6249717;22;20176;-65
2023/08/14 09:29:38;;;;;;;0.90;0.90;;;29.30;99.90;34.10;101229.00;;;;6250340;22;20153;-65
2023/08/14 09:32:04;;;;;;;0.10;0.10;;;29.70;99.90;33.00;101269.00;;;;6275540;22;20210;-65
2023/08/14 09:34:37;;;;;;;0.10;0.10;;;29.30;99.90;32.90;101253.00;;;;6249743;22;20493;-65
2023/08/14 09:37:04;;;;;;;0.20;0.20;;;29.00;99.90;32.80;101269.00;;;;6249575;22;20464;-64
2023/08/14 09:39:30;;;;;;;0.25;0.25;;;28.90;99.90;30.70;101326.00;;;;6250166;22;20231;-64
2023/08/14 09:41:56;;;;;;;0.20;0.20;;;27.70;99.90;33.20;101285.00;;;;6249701;22;20177;-65
2023/08/14 09:44:25;;;;;;;0.10;0.10;;;28.40;99.90;32.70;101296.00;;;;6224693;22;20539;-65
2023/08/14 09:47:20;;;;;;;0.65;0.15;;;28.70;99.90;32.70;101262.00;;;;6249761;22;20137;-65
2023/08/14 09:49:47;;;;;;;0.20;0.20;;;28.80;99.90;32.80;101286.00;;;;6227869;22;20184;-65
2023/08/14 09:52:13;;;;;;;0.10;0.10;;;28.80;99.90;34.40;101244.00;;;;6250023;22;20180;-64
2023/08/14 09:54:40;;;;;;;0.10;0.10;;;29.50;99.90;34.10;101249.00;;;;6249738;22;20137;-65
2023/08/14 09:57:07;;;;;;;0.10;0.10;;;29.70;99.90;35.00;101239.00;;;;6224551;22;20574;-65
2023/08/14 09:59:35;;;;;;;0.30;0.30;;;30.00;99.90;33.30;101262.00;;;;6224049;22;20246;-65
2023/08/14 10:02:11;;;;;;;0.10;0.10;;;29.90;99.90;32.10;101274.00;;;;6249769;22;20174;-64
2023/08/14 10:04:46;;;;;;;0.10;0.10;;;28.60;99.90;33.20;101265.00;;;;6249646;22;20235;-65
2023/08/14 10:07:14;;;;;;;0.10;0.10;;;29.10;99.90;30.40;101315.00;;;;6250185;22;20152;-64
2023/08/14 10:09:55;;;;;;;0.45;0.30;;;27.70;99.90;31.70;101303.00;;;;6249946;22;20243;-65
2023/08/14 10:12:27;;;;;;;0.28;0.28;;;27.50;99.90;32.10;101299.00;;;;6249528;22;20145;-65
2023/08/14 10:15:00;;;;;;;0.10;0.10;;;28.00;99.90;33.40;101275.00;;;;6250137;22;20554;-65
2023/08/14 10:17:33;;;;;;;0.50;0.38;;;28.80;99.90;33.20;101275.00;;;;6249570;22;20153;-64
2023/08/14 10:20:03;;;;;;;0.10;0.10;;;29.10;99.90;33.70;101272.00;;;;6249427;22;20145;-65
2023/08/14 10:33:28;;;;;;;3.00;0.20;;;28.00;99.90;30.90;101312.00;;;;5098175;27;21144;-66
2023/08/14 10:35:58;;;;;;;0.10;0.10;;;27.90;99.90;32.80;101287.00;;;;5082676;28;20223;-67
2023/08/14 10:38:41;;;;;;;0.30;0.30;;;28.30;99.90;32.50;101266.00;;;;5082358;28;20168;-66
2023/08/14 10:41:09;;;;;;;0.82;0.65;;;28.80;99.90;33.60;101245.00;;;;5079030;28;20185;-64
2023/08/14 10:43:36;;;;;;;0.10;0.10;;;29.30;99.90;33.80;101241.00;;;;5084703;28;20224;-64
2023/08/14 10:46:10;;;;;;;0.10;0.10;;;29.90;99.90;34.60;101236.00;;;;5068759;28;20220;-66
2023/08/14 10:48:38;;;;;;;0.20;0.20;;;30.20;99.90;33.70;101255.00;;;;5074628;28;20587;-64
2023/08/14 10:51:10;;;;;;;0.10;0.10;;;30.10;99.90;34.20;101246.00;;;;5084707;28;20197;-64
2023/08/14 10:53:44;;;;;;;0.10;0.10;;;29.80;99.90;33.40;101262.00;;;;5078578;28;20200;-64
2023/08/14 10:56:14;;;;;;;1.55;0.55;;;30.00;99.90;32.60;101259.00;;;;5088893;28;20626;-64
2023/08/14 10:58:50;;;;;;;0.10;0.10;;;29.30;99.90;31.90;101253.00;;;;5089976;28;20184;-67
2023/08/14 11:01:17;;;;;;;0.15;0.15;;;28.60;99.90;32.80;101277.00;;;;5089080;28;20576;-64
2023/08/14 11:04:03;;;;;;;0.10;0.10;;;28.70;99.90;32.80;101279.00;;;;5084963;28;20189;-64
2023/08/14 11:07:05;;;;;;;0.10;0.10;;;29.00;99.90;32.30;101277.00;;;;5071857;28;20553;-65
2023/08/14 11:09:36;;;;;;;0.73;0.52;;;29.00;99.90;31.60;101278.00;;;;5080141;28;20182;-65
2023/08/14 11:12:21;;;;;;;0.10;0.10;;;28.60;99.90;32.30;101258.00;;;;5078919;28;20639;-65
2023/08/14 11:14:47;;;;;;;0.95;0.95;;;28.60;99.90;34.90;101225.00;;;;5104565;28;20259;-65
2023/08/14 11:17:13;;;;;;;0.10;0.10;;;29.60;99.90;35.30;101198.00;;;;5077590;28;20648;-65
2023/08/14 11:19:44;;;;;;;0.80;0.80;;;30.30;99.90;36.30;101190.00;;;;5085062;28;20251;-65
2023/08/14 11:22:10;;;;;;;0.10;0.10;;;31.10;99.90;36.70;101200.00;;;;5087993;28;20191;-65
2023/08/14 11:24:40;;;;;;;0.20;0.20;;;31.90;99.90;36.70;101228.00;;;;5058443;28;20173;-65
2023/08/14 11:27:06;;;;;;;0.20;0.20;;;31.90;99.90;36.40;101238.00;;;;5088481;28;20657;-65
2023/08/14 11:29:31;;;;;;;0.20;0.10;;;32.20;99.90;33.70;101213.00;;;;5065675;28;20177;-65
2023/08/14 11:31:59;;;;;;;0.10;0.10;;;30.90;99.90;34.30;101205.00;;;;5081543;28;20216;-65
2023/08/14 11:34:26;;;;;;;0.38;0.38;;;30.50;99.90;35.10;101204.00;;;;5071427;28;20239;-66
2023/08/14 11:36:59;;;;;;;0.20;0.20;;;30.90;99.90;33.70;101212.00;;;;5087528;28;20184;-66
2023/08/14 11:39:25;;;;;;;0.00;0.00;;;30.50;99.90;35.70;101196.00;;;;5077730;28;20184;-66
2023/08/14 11:41:52;;;;;;;0.13;0.13;;;30.80;99.90;30.30;101254.00;;;;5072622;28;20181;-66
2023/08/14 11:44:36;;;;;;;2.75;0.93;;;28.70;99.90;30.80;101256.00;;;;5077005;28;20517;-66
2023/08/14 11:47:03;;;;;;;0.10;0.10;;;28.00;99.90;30.50;101263.00;;;;5062643;28;20185;-65
2023/08/14 11:49:32;;;;;;;0.10;0.10;;;27.40;99.90;33.60;101239.00;;;;5073961;28;20185;-66
2023/08/14 11:52:22;;;;;;;0.40;0.20;;;28.40;99.90;32.80;101241.00;;;;5073163;28;20224;-66
2023/08/14 11:54:48;;;;;;;0.10;0.10;;;28.90;99.90;34.10;101232.00;;;;5071909;28;20189;-66
2023/08/14 11:57:14;;;;;;;0.10;0.10;;;29.20;99.90;33.60;101246.00;;;;5065218;28;20640;-66
2023/08/14 11:59:44;;;;;;;0.10;0.10;;;29.30;99.90;33.60;101220.00;;;;5072490;28;20192;-66
2023/08/14 12:02:18;;;;;;;0.47;0.47;;;29.30;99.90;31.80;101228.00;;;;5074232;28;20204;-66
2023/08/14 12:04:44;;;;;;;0.50;0.50;;;28.50;99.90;31.80;101246.00;;;;5060609;28;20185;-66
2023/08/14 12:07:25;;;;;;;0.10;0.10;;;28.50;99.90;32.40;101248.00;;;;5051618;28;20188;-66
2023/08/14 12:09:54;;;;;;;0.10;0.10;;;28.40;99.90;31.40;101260.00;;;;5054291;28;20632;-65
2023/08/14 12:12:21;;;;;;;9.73;0.50;;;28.10;99.90;31.20;101245.00;;;;5071224;28;20229;-65
2023/08/14 12:14:51;;;;;;;0.20;0.20;;;28.00;99.90;32.30;101219.00;;;;5073932;28;20185;-65
2023/08/14 12:17:18;;;;;;;0.10;0.10;;;28.00;99.90;33.20;101226.00;;;;5057315;28;20216;-66
2023/08/14 12:20:10;;;;;;;1.95;0.57;;;28.40;99.90;31.90;101244.00;;;;5091146;28;20182;-66
2023/08/14 12:22:42;;;;;;;0.13;0.13;;;28.50;99.90;31.50;101246.00;;;;5062954;28;20182;-65
2023/08/14 12:25:09;;;;;;;0.20;0.20;;;28.10;99.90;32.10;101238.00;;;;5072525;28;20212;-66
2023/08/14 12:27:41;;;;;;;0.52;0.47;;;28.20;99.90;32.90;101221.00;;;;5066863;28;20208;-66
2023/08/14 12:30:10;;;;;;;0.13;0.13;;;28.40;99.90;33.80;101224.00;;;;5062873;28;20205;-66
2023/08/14 12:32:47;;;;;;;3.03;0.47;;;28.90;99.90;32.70;101225.00;;;;5073437;28;20224;-65
2023/08/14 12:35:13;;;;;;;0.10;0.10;;;29.00;99.90;32.90;101211.00;;;;5061211;28;20170;-66
2023/08/14 12:37:40;;;;;;;0.10;0.10;;;28.80;99.90;30.90;101236.00;;;;5071526;28;20598;-65
2023/08/14 12:40:11;;;;;;;5.40;4.57;;;27.90;99.90;31.60;101191.00;;;;5073884;28;20181;-65
2023/08/14 12:42:44;;;;;;;0.10;0.10;;;28.10;99.90;32.80;101197.00;;;;5056602;28;20197;-66
2023/08/14 12:45:28;;;;;;;0.10;0.10;;;28.00;99.90;34.40;101173.00;;;;5065804;28;20206;-66
2023/08/14 12:47:54;;;;;;;0.10;0.10;;;28.70;99.90;31.30;101224.00;;;;5063481;28;20181;-66
2023/08/14 12:50:20;;;;;;;0.20;0.20;;;28.20;99.90;32.60;101197.00;;;;5066893;28;20527;-66
2023/08/14 12:52:46;;;;;;;0.10;0.10;;;28.30;99.90;32.60;101188.00;;;;5053486;28;20292;-65
2023/08/14 12:58:53;;;;;;;0.13;0.13;;;28.70;99.90;33.10;101175.00;;;;5072441;28;20700;-66
2023/08/14 13:01:19;;;;;;;0.28;0.28;;;28.80;99.90;33.00;101171.00;;;;5056640;28;20651;-66
2023/08/14 13:03:45;;;;;;;2.10;0.50;;;28.80;99.90;32.40;101169.00;;;;5064997;28;20702;-66
2023/08/14 13:06:11;;;;;;;0.10;0.10;;;28.50;99.90;32.20;101175.00;;;;5072575;28;20185;-66
2023/08/14 13:08:37;;;;;;;0.75;0.57;;;28.40;99.90;32.60;101172.00;;;;5068255;28;20186;-66
2023/08/14 13:11:03;;;;;;;1.40;0.40;;;28.30;99.90;32.00;101180.00;;;;5053143;28;20593;-66
2023/08/14 13:13:29;;;;;;;0.10;0.10;;;28.20;99.90;31.90;101166.00;;;;5065220;28;20523;-66
2023/08/14 13:15:58;;;;;;;0.75;0.73;;;28.00;99.90;31.90;101183.00;;;;5066600;28;20181;-66
2023/08/14 13:18:50;;;;;;;0.20;0.20;;;28.00;99.90;31.40;101177.00;;;;5053059;28;20219;-66
2023/08/14 13:21:35;;;;;;;0.10;0.10;;;27.80;99.90;32.80;101169.00;;;;5067976;28;20223;-66
2023/08/14 13:24:01;;;;;;;0.10;0.10;;;28.10;99.90;32.20;101193.00;;;;5058380;28;20288;-66
2023/08/14 13:26:43;;;;;;;0.17;0.17;;;28.20;99.90;31.40;101202.00;;;;5057228;28;20195;-66
2023/08/14 13:29:09;;;;;;;0.75;0.75;;;28.20;99.90;33.60;101166.00;;;;5051988;28;20244;-66
2023/08/14 13:31:35;;;;;;;0.43;0.43;;;28.80;99.90;32.80;101180.00;;;;5055796;28;20244;-66
2023/08/14 13:34:01;;;;;;;0.10;0.10;;;28.60;99.90;33.90;101147.00;;;;5069113;28;20186;-66
2023/08/14 13:36:27;;;;;;;0.10;0.10;;;29.00;99.90;33.80;101158.00;;;;5069040;28;20185;-66
2023/08/14 13:38:53;;;;;;;0.10;0.10;;;29.20;99.90;33.60;101157.00;;;;5061123;28;20181;-66
2023/08/14 13:41:19;;;;;;;0.38;0.38;;;29.40;99.90;33.40;101139.00;;;;5057162;28;20186;-66
2023/08/14 13:43:46;;;;;;;0.10;0.10;;;29.30;99.90;33.10;101130.00;;;;5059363;28;20652;-66
2023/08/14 13:46:12;;;;;;;0.10;0.10;;;29.20;99.90;32.80;101145.00;;;;5072087;28;20197;-66
2023/08/14 13:48:38;;;;;;;3.53;2.25;;;28.80;99.90;33.80;101132.00;;;;5069005;28;20177;-66
2023/08/14 13:51:04;;;;;;;0.10;0.10;;;28.90;99.90;33.90;101126.00;;;;5054397;28;20253;-66
2023/08/14 13:53:30;;;;;;;0.10;0.10;;;29.00;99.90;33.60;101132.00;;;;5069522;28;20520;-66
2023/08/14 13:55:56;;;;;;;0.10;0.10;;;28.90;99.90;34.20;101127.00;;;;5068891;28;20273;-66
2023/08/14 13:58:23;;;;;;;0.10;0.10;;;29.10;99.90;32.90;101143.00;;;;5086595;28;20693;-66
2023/08/14 14:00:49;;;;;;;0.10;0.10;;;29.00;99.90;32.40;101150.00;;;;5072242;28;20190;-66
2023/08/14 14:03:15;;;;;;;1.98;1.80;;;28.60;99.90;32.20;101157.00;;;;5065238;28;20188;-66
2023/08/14 14:05:41;;;;;;;0.22;0.13;;;28.40;99.90;32.90;101148.00;;;;5063458;28;20186;-66
2023/08/14 14:08:07;;;;;;;0.10;0.10;;;28.40;99.90;32.80;101146.00;;;;5066726;28;20190;-66
2023/08/14 14:10:33;;;;;;;0.10;0.10;;;28.50;99.90;31.70;101155.00;;;;5054689;28;20628;-66
2023/08/14 14:12:59;;;;;;;0.20;0.20;;;28.30;99.90;32.50;101145.00;;;;5048755;28;20210;-66
2023/08/14 14:15:25;;;;;;;0.10;0.10;;;28.30;99.90;32.80;101151.00;;;;5059039;28;20336;-66
2023/08/14 14:17:51;;;;;;;0.90;0.50;;;28.30;99.90;32.80;101118.00;;;;5062445;28;20205;-66
2023/08/14 14:20:17;;;;;;;0.10;0.10;;;28.60;99.90;33.70;101139.00;;;;5066740;28;20178;-66
2023/08/14 14:22:43;;;;;;;0.15;0.15;;;29.00;99.90;33.70;101140.00;;;;5062077;28;20178;-66
2023/08/14 14:25:09;;;;;;;0.35;0.35;;;29.00;99.90;32.90;101139.00;;;;5057545;28;20212;-66
2023/08/14 14:27:35;;;;;;;0.30;0.30;;;28.80;99.90;32.40;101132.00;;;;5068117;28;20189;-66
2023/08/14 14:30:03;;;;;;;0.20;0.20;;;28.50;99.90;33.70;101117.00;;;;5066586;28;20674;-66
2023/08/14 14:32:28;;;;;;;0.40;0.40;;;28.90;99.90;30.50;101157.00;;;;5054824;28;20213;-66
2023/08/14 14:34:54;;;;;;;0.10;0.10;;;28.10;99.90;31.20;101159.00;;;;5068485;28;20182;-66
2023/08/14 14:37:20;;;;;;;1.17;0.45;;;27.70;99.90;31.80;101155.00;;;;5048230;28;20627;-66
2023/08/14 14:39:46;;;;;;;0.10;0.10;;;27.90;99.90;32.90;101138.00;;;;5056775;28;20216;-66
2023/08/14 14:42:12;;;;;;;0.10;0.10;;;28.40;99.90;33.50;101132.00;;;;5071919;28;20189;-66
2023/08/14 14:44:40;;;;;;;0.10;0.10;;;28.80;99.90;33.50;101132.00;;;;5049021;28;20174;-66
2023/08/14 14:47:18;;;;;;;0.10;0.10;;;29.10;99.90;33.30;101123.00;;;;5082205;28;20670;-66
2023/08/14 14:49:44;;;;;;;0.10;0.10;;;28.70;99.90;34.10;101118.00;;;;5059518;28;20239;-66
2023/08/14 14:52:11;;;;;;;2.70;2.50;;;29.00;99.90;34.10;101092.00;;;;5054586;28;20284;-66
2023/08/14 14:54:36;;;;;;;0.10;0.10;;;29.10;99.90;34.30;101111.00;;;;5066075;28;20174;-66
2023/08/14 14:57:02;;;;;;;0.10;0.10;;;29.30;99.90;34.00;101085.00;;;;5049149;28;20192;-66
2023/08/14 14:59:28;;;;;;;0.10;0.10;;;29.50;99.90;33.60;101118.00;;;;5067195;28;20174;-66
2023/08/14 15:01:54;;;;;;;1.15;0.52;;;29.30;99.90;32.30;101135.00;;;;5053577;28;20193;-66
2023/08/14 15:04:20;;;;;;;0.10;0.10;;;28.70;99.90;33.00;101127.00;;;;5066989;28;20182;-66
2023/08/14 15:06:47;;;;;;;0.10;0.10;;;28.40;99.90;33.80;101119.00;;;;5051289;28;20528;-67
2023/08/14 15:09:13;;;;;;;0.10;0.10;;;28.80;99.90;33.40;101122.00;;;;5062872;28;20190;-66
2023/08/14 15:11:39;;;;;;;0.10;0.10;;;28.90;99.90;32.10;101143.00;;;;5055295;28;20611;-66
2023/08/14 15:14:05;;;;;;;0.40;0.40;;;28.60;99.90;32.00;101123.00;;;;5071000;28;20185;-67
2023/08/14 15:16:31;;;;;;;0.10;0.10;;;28.20;99.90;33.10;101127.00;;;;5053487;28;20657;-67
2023/08/14 15:19:15;;;;;;;0.10;0.10;;;28.30;99.90;31.40;101130.00;;;;5061885;28;20236;-67
2023/08/14 15:21:42;;;;;;;0.52;0.43;;;28.00;99.90;33.10;101112.00;;;;5071350;28;20701;-67
2023/08/14 15:24:08;;;;;;;0.10;0.10;;;28.30;99.90;32.00;101144.00;;;;5049782;28;20659;-66
2023/08/14 15:26:34;;;;;;;0.10;0.10;;;28.30;99.90;32.60;101144.00;;;;5058771;28;20651;-66
2023/08/14 15:29:00;;;;;;;0.10;0.10;;;28.30;99.90;31.40;101156.00;;;;5074305;28;20186;-66
2023/08/14 15:31:29;;;;;;;0.43;0.43;;;28.10;99.90;32.40;101156.00;;;;5056687;28;20691;-66
2023/08/14 15:33:55;;;;;;;0.17;0.17;;;28.10;99.90;32.90;101146.00;;;;5043899;28;20189;-66
2023/08/14 15:36:21;;;;;;;0.75;0.25;;;28.30;99.90;31.80;101168.00;;;;5074714;28;20181;-66
2023/08/14 15:38:49;;;;;;;0.10;0.10;;;28.20;99.90;33.30;101155.00;;;;5074821;28;20185;-66
2023/08/14 15:41:15;;;;;;;0.10;0.10;;;28.30;99.90;34.00;101123.00;;;;5064695;28;20194;-66
2023/08/14 15:43:41;;;;;;;0.10;0.10;;;28.90;99.90;33.80;101135.00;;;;5063565;28;20627;-66
2023/08/14 15:46:14;;;;;;;0.10;0.10;;;29.00;99.90;32.50;101148.00;;;;5066889;28;20619;-66
2023/08/14 15:48:40;;;;;;;0.20;0.20;;;28.70;99.90;32.50;101146.00;;;;5087568;28;20182;-66
2023/08/14 15:51:06;;;;;;;0.20;0.20;;;28.60;99.90;31.70;101137.00;;;;5051894;28;20624;-66
2023/08/14 15:53:32;;;;;;;0.10;0.10;;;28.20;99.90;31.60;101160.00;;;;5074552;28;20201;-66
2023/08/14 15:55:58;;;;;;;0.10;0.10;;;27.90;99.90;31.70;101157.00;;;;5056169;28;20197;-66
2023/08/14 15:58:24;;;;;;;0.10;0.10;;;27.80;99.90;31.90;101162.00;;;;5063108;28;20190;-66
2023/08/14 16:00:51;;;;;;;0.10;0.10;;;27.80;99.90;32.60;101142.00;;;;5068230;28;20267;-66
2023/08/14 16:03:17;;;;;;;0.10;0.10;;;28.00;99.90;31.90;101157.00;;;;5071861;28;20204;-66
2023/08/14 16:05:46;;;;;;;0.30;0.30;;;27.90;99.90;31.50;101158.00;;;;5057166;28;20550;-66
2023/08/14 16:08:12;;;;;;;0.30;0.30;;;27.80;99.90;32.30;101147.00;;;;5060153;28;20178;-66
2023/08/14 16:10:40;;;;;;;0.10;0.10;;;28.10;99.90;30.60;101170.00;;;;5050812;28;20551;-66
2023/08/14 16:13:06;;;;;;;0.40;0.40;;;27.70;99.90;31.50;101165.00;;;;5052169;28;20293;-66
2023/08/14 16:15:32;;;;;;;0.10;0.10;;;27.60;99.90;31.50;101166.00;;;;5054911;28;20320;-66
2023/08/14 16:18:18;;;;;;;0.10;0.10;;;27.60;99.90;32.40;101129.00;;;;5057560;28;20181;-66
2023/08/14 16:20:52;;;;;;;1.13;0.52;;;28.00;99.90;31.70;101169.00;;;;5072553;28;20207;-66
2023/08/14 16:23:18;;;;;;;0.10;0.10;;;28.00;99.90;32.50;101131.00;;;;5068959;28;20220;-66
2023/08/14 16:25:48;;;;;;;0.55;0.50;;;28.10;99.90;33.30;101147.00;;;;5055498;28;20231;-66
2023/08/14 16:28:14;;;;;;;0.50;0.50;;;28.30;99.90;32.30;101148.00;;;;5055131;28;20220;-66
2023/08/14 16:30:41;;;;;;;0.70;0.63;;;28.30;99.90;31.40;101154.00;;;;5073878;28;20186;-66
2023/08/14 16:33:14;;;;;;;0.10;0.10;;;27.90;99.90;31.80;101156.00;;;;5073619;28;20671;-66
2023/08/14 16:35:40;;;;;;;0.13;0.13;;;27.70;99.90;32.70;101148.00;;;;5064929;28;20531;-66
2023/08/14 16:38:10;;;;;;;0.47;0.47;;;28.00;99.90;31.50;101161.00;;;;5057069;28;20182;-66
2023/08/14 16:40:45;;;;;;;0.10;0.10;;;27.80;99.90;32.60;101141.00;;;;5071285;28;20268;-66
2023/08/14 16:43:12;;;;;;;0.10;0.10;;;27.80;99.90;33.20;101136.00;;;;5086183;28;20229;-66
2023/08/14 16:45:41;;;;;;;0.10;0.10;;;28.20;99.90;32.00;101145.00;;;;5069555;28;20189;-66
2023/08/14 16:48:26;;;;;;;0.25;0.25;;;28.20;99.90;32.20;101134.00;;;;5065692;28;20258;-66
2023/08/14 16:51:12;;;;;;;0.10;0.10;;;28.20;99.90;32.50;101139.00;;;;5088620;28;20187;-66
2023/08/14 16:53:58;;;;;;;0.30;0.30;;;27.90;99.90;31.50;101132.00;;;;5044353;28;20610;-66
2023/08/14 16:56:42;;;;;;;0.10;0.10;;;27.80;99.90;31.70;101158.00;;;;5063861;28;20178;-66
2023/08/14 16:59:36;;;;;;;0.10;0.10;;;27.60;99.90;32.00;101146.00;;;;5067978;28;20185;-67
2023/08/14 17:02:10;;;;;;;0.10;0.10;;;27.70;99.90;32.50;101126.00;;;;5056242;28;20201;-66
2023/08/14 17:04:37;;;;;;;0.10;0.10;;;27.90;99.90;32.40;101118.00;;;;5068559;28;20188;-66
2023/08/14 17:07:03;;;;;;;0.20;0.20;;;27.80;99.90;32.50;101110.00;;;;5069383;28;20185;-66
2023/08/14 17:09:29;;;;;;;0.10;0.10;;;28.00;99.90;32.60;101123.00;;;;5054847;28;20185;-66
2023/08/14 17:12:15;;;;;;;0.10;0.10;;;27.90;99.90;32.40;101134.00;;;;5070179;28;20206;-66
2023/08/14 17:14:44;;;;;;;0.30;0.30;;;27.90;99.90;32.60;101114.00;;;;5090339;28;20184;-66
2023/08/14 17:17:12;;;;;;;0.10;0.10;;;27.90;99.90;32.80;101122.00;;;;5062923;28;20189;-66
2023/08/14 17:19:58;;;;;;;0.10;0.10;;;27.90;99.90;31.90;101132.00;;;;5060323;28;20182;-66
2023/08/14 17:22:25;;;;;;;0.10;0.10;;;27.90;99.90;32.40;101123.00;;;;5047562;28;20190;-66
2023/08/14 17:24:53;;;;;;;0.10;0.10;;;27.80;99.90;33.00;101112.00;;;;5072188;28;20208;-66
2023/08/14 17:27:26;;;;;;;0.10;0.10;;;27.90;99.90;32.30;101103.00;;;;5053213;28;20600;-66
2023/08/14 17:30:07;;;;;;;0.10;0.10;;;27.80;99.90;31.50;101142.00;;;;5067727;28;20220;-66
2023/08/14 17:32:33;;;;;;;0.10;0.10;;;27.60;99.90;32.00;101139.00;;;;5063506;28;20309;-66
2023/08/14 17:35:00;;;;;;;0.10;0.10;;;27.50;99.90;32.40;101107.00;;;;5055997;28;20185;-66
2023/08/14 17:37:28;;;;;;;0.10;0.10;;;27.60;99.90;32.40;101123.00;;;;5057044;28;20194;-66
2023/08/14 17:39:55;;;;;;;0.10;0.10;;;27.60;99.90;33.40;101119.00;;;;5052764;28;20201;-66
2023/08/14 17:42:21;;;;;;;0.10;0.10;;;28.00;99.90;33.70;101115.00;;;;5061722;28;20185;-67
2023/08/14 17:44:50;;;;;;;0.20;0.20;;;28.40;99.90;32.30;101123.00;;;;5061809;28;20209;-66
2023/08/14 17:47:16;;;;;;;0.10;0.10;;;28.00;99.90;32.00;101137.00;;;;5068575;28;20192;-66
2023/08/14 17:49:43;;;;;;;0.10;0.10;;;27.70;99.90;32.10;101142.00;;;;5072582;28;20181;-66
2023/08/14 17:52:32;;;;;;;0.10;0.10;;;27.40;99.90;32.70;101111.00;;;;5064565;28;20316;-66
2023/08/14 17:54:58;;;;;;;0.10;0.10;;;27.50;99.90;31.80;101161.00;;;;5063243;28;20194;-66
2023/08/14 17:57:24;;;;;;;0.10;0.10;;;27.50;99.90;32.20;101158.00;;;;5047023;28;20185;-66
2023/08/14 17:59:53;;;;;;;0.10;0.10;;;27.40;99.90;31.70;101165.00;;;;5050643;28;20177;-66
2023/08/14 18:02:19;;;;;;;0.10;0.10;;;27.30;99.90;31.00;101167.00;;;;5047806;28;20276;-66
2023/08/14 18:04:45;;;;;;;0.10;0.10;;;27.10;99.90;31.90;101156.00;;;;5070661;28;20256;-66
2023/08/14 18:07:11;;;;;;;0.10;0.10;;;27.10;99.90;31.30;101162.00;;;;5068925;28;20228;-67
2023/08/14 18:09:37;;;;;;;0.55;0.55;;;27.10;99.90;31.70;101157.00;;;;5056031;28;20182;-66
2023/08/14 18:12:03;;;;;;;1.88;1.75;;;27.00;99.90;31.20;101159.00;;;;5064395;28;20238;-66